Schneifelwetter: Wetterstation Hallschlag, 537 m . NN
Wetterdaten: Sonntag, 26.06.2011
Datum Zeit Temp. A. Feuchte A. Luftdruck Regen Wind Richtung Richtung Sonnenschein Helligkeit T Regen Taupunkt Windchill
26.06.2011 00:00 14,5 C 93 % 1022 hPa 0,0 l/m 12,6 km/h (3 Bft) W 265 0 min 0 lux 0,00 min 13,4 C 11,5 C
26.06.2011 00:15 14,5 C 93 % 1022 hPa 0,0 l/m 17,8 km/h (3 Bft) W-SW22.5 250 0 min 0 lux 0,00 min 13,4 C 9,7 C
26.06.2011 00:30 14,5 C 93 % 1022 hPa 0,0 l/m 22,0 km/h (4 Bft) W22.5 260 0 min 0 lux 0,00 min 13,4 C 8,6 C
26.06.2011 00:45 14,5 C 93 % 1022 hPa 0,0 l/m 18,6 km/h (3 Bft) W22.5 260 0 min 0 lux 0,00 min 13,4 C 9,5 C
26.06.2011 01:00 14,5 C 92 % 1022 hPa 0,0 l/m 18,6 km/h (3 Bft) W22.5 265 0 min 0 lux 0,00 min 13,2 C 9,5 C
26.06.2011 01:15 14,5 C 92 % 1022 hPa 0,0 l/m 21,6 km/h (4 Bft) W22.5 265 0 min 0 lux 0,00 min 13,2 C 8,7 C
26.06.2011 01:30 14,4 C 92 % 1022 hPa 0,0 l/m 18,2 km/h (3 Bft) W22.5 265 0 min 0 lux 0,00 min 13,1 C 9,5 C
26.06.2011 01:45 14,4 C 92 % 1022 hPa 0,0 l/m 23,2 km/h (4 Bft) W22.5 270 0 min 0 lux 0,00 min 13,1 C 8,2 C
26.06.2011 02:00 14,3 C 92 % 1022 hPa 0,0 l/m 19,1 km/h (3 Bft) W22.5 270 0 min 0 lux 0,00 min 13,0 C 9,1 C
26.06.2011 02:15 14,2 C 93 % 1022 hPa 0,0 l/m 18,1 km/h (3 Bft) W22.5 265 0 min 0 lux 0,00 min 13,1 C 9,2 C
26.06.2011 02:30 14,1 C 93 % 1022 hPa 0,0 l/m 19,2 km/h (3 Bft) W22.5 270 0 min 0 lux 0,00 min 13,0 C 8,8 C
26.06.2011 02:45 14,1 C 93 % 1022 hPa 0,0 l/m 16,9 km/h (3 Bft) W22.5 275 0 min 0 lux 0,00 min 13,0 C 9,5 C
26.06.2011 03:00 14,0 C 93 % 1022 hPa 0,0 l/m 13,5 km/h (3 Bft) W22.5 260 0 min 0 lux 0,00 min 12,9 C 10,5 C
26.06.2011 03:15 14,0 C 93 % 1022 hPa 0,0 l/m 18,0 km/h (3 Bft) W-SW22.5 250 0 min 0 lux 0,00 min 12,9 C 9,0 C
26.06.2011 03:30 14,0 C 93 % 1022 hPa 0,0 l/m 10,0 km/h (2 Bft) W-SW 245 0 min 0 lux 0,00 min 12,9 C 12,0 C
26.06.2011 03:45 13,9 C 93 % 1022 hPa 0,0 l/m 11,6 km/h (2 Bft) W-SW 250 0 min 0 lux 0,00 min 12,8 C 11,2 C
26.06.2011 04:00 13,8 C 93 % 1023 hPa 0,0 l/m 13,0 km/h (3 Bft) W22.5 260 0 min 0 lux 0,00 min 12,7 C 10,5 C
26.06.2011 04:15 13,8 C 93 % 1022 hPa 0,0 l/m 12,9 km/h (3 Bft) W 265 0 min 0 lux 0,00 min 12,7 C 10,5 C
26.06.2011 04:30 13,6 C 94 % 1023 hPa 0,0 l/m 12,3 km/h (3 Bft) W22.5 265 0 min 0 lux 0,00 min 12,7 C 10,5 C
26.06.2011 04:45 13,6 C 94 % 1023 hPa 0,0 l/m 6,9 km/h (2 Bft) W 280 0 min 0 lux 0,00 min 12,7 C 13,3 C
26.06.2011 05:00 13,5 C 94 % 1023 hPa 0,0 l/m 9,4 km/h (2 Bft) W-SW 255 0 min 0 lux 0,00 min 12,6 C 11,8 C
26.06.2011 05:15 13,4 C 94 % 1023 hPa 0,0 l/m 1,1 km/h (1 Bft) W-SW 245 0 min 78 lux 0,00 min 12,5 C 13,4 C
26.06.2011 05:30 13,4 C 94 % 1023 hPa 0,0 l/m 8,4 km/h (2 Bft) W-SW 245 0 min 225 lux 0,00 min 12,5 C 12,2 C
26.06.2011 05:45 13,3 C 94 % 1023 hPa 0,0 l/m 8,8 km/h (2 Bft) W-SW 245 0 min 473 lux 0,00 min 12,4 C 11,9 C
26.06.2011 06:00 13,3 C 94 % 1023 hPa 0,0 l/m 7,0 km/h (2 Bft) W-SW 245 0 min 1,14 klux 0,00 min 12,4 C 12,9 C
26.06.2011 06:15 13,4 C 95 % 1023 hPa 0,0 l/m 6,7 km/h (2 Bft) W-SW 245 0 min 1,39 klux 0,00 min 12,6 C 13,2 C
26.06.2011 06:30 13,4 C 95 % 1023 hPa 0,0 l/m 8,5 km/h (2 Bft) W-SW 245 0 min 1,86 klux 0,00 min 12,6 C 12,1 C
26.06.2011 06:45 13,4 C 95 % 1023 hPa 0,0 l/m 12,8 km/h (3 Bft) W-SW 250 0 min 2,69 klux 0,00 min 12,6 C 10,1 C
26.06.2011 07:00 13,6 C 95 % 1023 hPa 0,0 l/m 13,2 km/h (3 Bft) W-SW22.5 250 0 min 4,69 klux 0,00 min 12,8 C 10,2 C
26.06.2011 07:15 13,8 C 95 % 1023 hPa 0,0 l/m 6,5 km/h (2 Bft) W-SW 240 0 min 7,52 klux 0,00 min 13,0 C 13,8 C
26.06.2011 07:30 14,2 C 95 % 1023 hPa 0,0 l/m 6,7 km/h (2 Bft) W-SW 240 0 min 11,0 klux 0,00 min 13,4 C 14,0 C
26.06.2011 07:45 14,4 C 95 % 1023 hPa 0,0 l/m 8,9 km/h (2 Bft) W-SW 240 0 min 13,0 klux 0,00 min 13,6 C 13,0 C
26.06.2011 08:00 15,1 C 94 % 1023 hPa 0,0 l/m 6,0 km/h (2 Bft) W-SW 240 0 min 19,4 klux 0,00 min 14,1 C 15,1 C
26.06.2011 08:15 16,1 C 92 % 1023 hPa 0,0 l/m 7,6 km/h (2 Bft) W-SW45 255 0 min 36,6 klux 0,00 min 14,8 C 15,5 C
26.06.2011 08:30 16,5 C 91 % 1023 hPa 0,0 l/m 5,1 km/h (1 Bft) W-SW 250 0 min 18,9 klux 0,00 min 15,0 C 16,5 C
26.06.2011 08:45 16,9 C 89 % 1023 hPa 0,0 l/m 6,5 km/h (2 Bft) W-SW 250 0 min 23,8 klux 0,00 min 15,1 C 16,9 C
26.06.2011 09:00 17,4 C 87 % 1023 hPa 0,0 l/m 5,6 km/h (1 Bft) W-SW 250 0 min 31,5 klux 0,00 min 15,2 C 17,4 C
26.06.2011 09:15 18,5 C 85 % 1023 hPa 0,0 l/m 0,0 km/h (0 Bft) W-SW 250 0 min 47,1 klux 0,00 min 15,9 C 18,5 C
26.06.2011 09:30 19,3 C 82 % 1023 hPa 0,0 l/m 3,9 km/h (1 Bft) W-SW 250 0 min 44,0 klux 0,00 min 16,1 C 19,3 C
26.06.2011 09:45 19,8 C 81 % 1023 hPa 0,0 l/m 0,8 km/h (0 Bft) W-SW 250 0 min 45,0 klux 0,00 min 16,4 C 19,8 C
26.06.2011 10:00 20,6 C 80 % 1023 hPa 0,0 l/m 0,6 km/h (0 Bft) W-SW 250 0 min 51,8 klux 0,00 min 17,0 C 20,6 C
26.06.2011 10:15 21,0 C 78 % 1023 hPa 0,0 l/m 0,0 km/h (0 Bft) W-SW 250 0 min 46,2 klux 0,00 min 17,0 C 21,0 C
26.06.2011 10:30 21,3 C 76 % 1023 hPa 0,0 l/m 6,4 km/h (2 Bft) W-SW 250 15 min 83,1 klux 0,00 min 16,9 C 21,3 C
26.06.2011 10:45 22,5 C 72 % 1023 hPa 0,0 l/m 0,0 km/h (0 Bft) W-SW 250 15 min 69,2 klux 0,00 min 17,2 C 22,5 C
26.06.2011 11:00 22,8 C 71 % 1023 hPa 0,0 l/m 0,0 km/h (0 Bft) W-SW 250 0 min 36,3 klux 0,00 min 17,3 C 22,8 C
26.06.2011 11:15 22,4 C 71 % 1023 hPa 0,0 l/m 0,0 km/h (0 Bft) W-SW 250 0 min 37,2 klux 0,00 min 16,9 C 22,4 C
26.06.2011 11:30 22,5 C 72 % 1023 hPa 0,0 l/m 7,2 km/h (2 Bft) W-SW 250 15 min 87,9 klux 0,00 min 17,2 C 22,2 C
26.06.2011 11:45 23,3 C 69 % 1023 hPa 0,0 l/m 8,1 km/h (2 Bft) S-SO22.5 160 15 min 65,4 klux 0,00 min 17,3 C 22,8 C
26.06.2011 12:00 23,6 C 68 % 1023 hPa 0,0 l/m 6,3 km/h (2 Bft) S-SO 160 15 min 115 klux 0,00 min 17,3 C 23,6 C
26.06.2011 12:15 24,2 C 68 % 1023 hPa 0,0 l/m 0,0 km/h (0 Bft) S-SO 165 15 min 102 klux 0,00 min 17,9 C 24,2 C
26.06.2011 12:30 24,4 C 66 % 1023 hPa 0,0 l/m 0,0 km/h (0 Bft) W-SW 250 15 min 108 klux 0,00 min 17,6 C 24,4 C
26.06.2011 12:45 24,0 C 68 % 1023 hPa 0,0 l/m 6,3 km/h (2 Bft) W-SW 240 15 min 93,6 klux 0,00 min 17,7 C 24,0 C
26.06.2011 13:00 24,1 C 67 % 1023 hPa 0,0 l/m 0,3 km/h (0 Bft) W-SW 240 15 min 95,9 klux 0,00 min 17,6 C 24,1 C
26.06.2011 13:15 24,2 C 63 % 1023 hPa 0,0 l/m 0,3 km/h (0 Bft) SO 140 15 min 98,6 klux 0,00 min 16,7 C 24,2 C
26.06.2011 13:30 23,7 C 64 % 1022 hPa 0,0 l/m 0,5 km/h (0 Bft) W67.5 270 15 min 95,9 klux 0,00 min 16,5 C 23,7 C
26.06.2011 13:45 24,0 C 64 % 1023 hPa 0,0 l/m 8,9 km/h (2 Bft) W-SW45 240 15 min 93,4 klux 0,00 min 16,8 C 23,3 C
26.06.2011 14:00 24,0 C 63 % 1023 hPa 0,0 l/m 2,3 km/h (1 Bft) S-SW 210 15 min 92,9 klux 0,00 min 16,5 C 24,0 C
26.06.2011 14:15 24,2 C 65 % 1022 hPa 0,0 l/m 9,4 km/h (2 Bft) W-SW 250 15 min 91,2 klux 0,00 min 17,2 C 23,4 C
26.06.2011 14:30 24,4 C 64 % 1023 hPa 0,0 l/m 9,6 km/h (2 Bft) SW45 225 15 min 91,0 klux 0,00 min 17,1 C 23,6 C
26.06.2011 14:45 24,7 C 62 % 1023 hPa 0,0 l/m 12,1 km/h (2 Bft) W22.5 260 15 min 90,5 klux 0,00 min 16,9 C 23,4 C
26.06.2011 15:00 24,7 C 62 % 1023 hPa 0,0 l/m 8,5 km/h (2 Bft) W 270 15 min 89,0 klux 0,00 min 16,9 C 24,2 C
26.06.2011 15:15 25,0 C 62 % 1022 hPa 0,0 l/m 7,7 km/h (2 Bft) W-SW22.5 240 15 min 88,0 klux 0,00 min 17,2 C 24,7 C
26.06.2011 15:30 24,8 C 59 % 1022 hPa 0,0 l/m 8,2 km/h (2 Bft) W45 275 15 min 86,0 klux 0,00 min 16,2 C 24,3 C
26.06.2011 15:45 25,3 C 60 % 1022 hPa 0,0 l/m 4,8 km/h (1 Bft) S-SO 160 15 min 85,8 klux 0,00 min 17,0 C 25,3 C
26.06.2011 16:00 25,6 C 59 % 1022 hPa 0,0 l/m 5,2 km/h (1 Bft) O22.5 100 15 min 84,7 klux 0,00 min 17,0 C 25,6 C
26.06.2011 16:15 25,9 C 59 % 1022 hPa 0,0 l/m 12,0 km/h (2 Bft) W-SW22.5 255 15 min 83,2 klux 0,00 min 17,3 C 24,8 C
26.06.2011 16:30 26,3 C 56 % 1022 hPa 0,0 l/m 8,9 km/h (2 Bft) W-SW22.5 255 15 min 84,7 klux 0,00 min 16,8 C 25,8 C
26.06.2011 16:45 26,4 C 56 % 1022 hPa 0,0 l/m 8,5 km/h (2 Bft) W22.5 270 15 min 82,0 klux 0,00 min 16,9 C 26,0 C
26.06.2011 17:00 26,2 C 58 % 1022 hPa 0,0 l/m 13,1 km/h (3 Bft) N-NO22.5 25 15 min 82,6 klux 0,00 min 17,3 C 25,0 C
26.06.2011 17:15 25,6 C 59 % 1022 hPa 0,0 l/m 19,3 km/h (3 Bft) N-NO22.5 30 15 min 77,4 klux 0,00 min 17,0 C 23,5 C
26.06.2011 17:30 25,2 C 62 % 1022 hPa 0,0 l/m 19,6 km/h (3 Bft) NO22.5 40 15 min 78,1 klux 0,00 min 17,4 C 23,0 C
26.06.2011 17:45 25,0 C 62 % 1022 hPa 0,0 l/m 21,0 km/h (4 Bft) NO22.5 45 15 min 65,7 klux 0,00 min 17,2 C 22,6 C
26.06.2011 18:00 25,2 C 63 % 1022 hPa 0,0 l/m 13,0 km/h (3 Bft) NO45 50 15 min 61,6 klux 0,00 min 17,6 C 23,9 C
26.06.2011 18:15 24,4 C 64 % 1022 hPa 0,0 l/m 20,2 km/h (4 Bft) O67.5 90 0 min 48,5 klux 0,00 min 17,1 C 21,9 C
26.06.2011 18:30 24,0 C 67 % 1022 hPa 0,0 l/m 21,6 km/h (4 Bft) NO22.5 45 0 min 48,9 klux 0,00 min 17,5 C 21,2 C
26.06.2011 18:45 24,0 C 66 % 1022 hPa 0,0 l/m 15,1 km/h (3 Bft) NO67.5 50 0 min 46,7 klux 0,00 min 17,2 C 22,1 C
26.06.2011 19:00 23,8 C 67 % 1021 hPa 0,0 l/m 18,0 km/h (3 Bft) O-NO67.5 70 0 min 42,6 klux 0,00 min 17,3 C 21,4 C
26.06.2011 19:15 23,8 C 67 % 1022 hPa 0,0 l/m 19,8 km/h (3 Bft) O-NO67.5 70 0 min 38,3 klux 0,00 min 17,3 C 21,1 C
26.06.2011 19:30 23,7 C 68 % 1022 hPa 0,0 l/m 18,4 km/h (3 Bft) O-NO45 70 0 min 34,1 klux 0,00 min 17,4 C 21,2 C
26.06.2011 19:45 23,3 C 68 % 1022 hPa 0,0 l/m 17,2 km/h (3 Bft) O-NO67.5 60 0 min 30,2 klux 0,00 min 17,1 C 20,9 C
26.06.2011 20:00 22,6 C 70 % 1021 hPa 0,0 l/m 18,8 km/h (3 Bft) O-NO45 60 0 min 28,0 klux 0,00 min 16,8 C 19,7 C
26.06.2011 20:15 21,8 C 72 % 1021 hPa 0,0 l/m 17,2 km/h (3 Bft) NO45 55 0 min 20,6 klux 0,00 min 16,5 C 19,0 C
26.06.2011 20:30 21,3 C 73 % 1021 hPa 0,0 l/m 13,9 km/h (3 Bft) O-NO67.5 65 0 min 20,3 klux 0,00 min 16,3 C 19,1 C
26.06.2011 20:45 20,9 C 74 % 1021 hPa 0,0 l/m 13,1 km/h (3 Bft) O45 80 0 min 15,3 klux 0,00 min 16,1 C 18,8 C
26.06.2011 21:00 20,4 C 76 % 1021 hPa 0,0 l/m 10,1 km/h (2 Bft) O22.5 80 0 min 11,8 klux 0,00 min 16,0 C 19,1 C
26.06.2011 21:15 19,9 C 77 % 1021 hPa 0,0 l/m 9,0 km/h (2 Bft) O45 100 0 min 3,94 klux 0,00 min 15,7 C 18,9 C
26.06.2011 21:30 19,5 C 79 % 1021 hPa 0,0 l/m 8,3 km/h (2 Bft) O-NO 70 0 min 2,80 klux 0,00 min 15,8 C 18,7 C
26.06.2011 21:45 18,9 C 80 % 1021 hPa 0,0 l/m 6,8 km/h (2 Bft) NO 40 0 min 1,42 klux 0,00 min 15,4 C 18,7 C
26.06.2011 22:00 18,4 C 81 % 1021 hPa 0,0 l/m 6,7 km/h (2 Bft) NO 35 0 min 669 lux 0,00 min 15,1 C 18,3 C
26.06.2011 22:15 17,6 C 82 % 1021 hPa 0,0 l/m 0,0 km/h (0 Bft) N-NO 30 0 min 243 lux 0,00 min 14,5 C 17,6 C
26.06.2011 22:30 17,2 C 84 % 1021 hPa 0,0 l/m 0,0 km/h (0 Bft) N-NO 30 0 min 41 lux 0,00 min 14,5 C 17,2 C
26.06.2011 22:45 17,0 C 84 % 1022 hPa 0,0 l/m 5,4 km/h (1 Bft) N-NO 30 0 min 4 lux 0,00 min 14,3 C 17,0 C
26.06.2011 23:00 16,3 C 85 % 1022 hPa 0,0 l/m 0,0 km/h (0 Bft) N-NO 30 0 min 0 lux 0,00 min 13,8 C 16,3 C
26.06.2011 23:15 16,0 C 88 % 1021 hPa 0,0 l/m 0,4 km/h (0 Bft) N-NO 30 0 min 0 lux 0,00 min 14,0 C 16,0 C
26.06.2011 23:30 16,0 C 88 % 1021 hPa 0,0 l/m 0,0 km/h (0 Bft) N-NO 30 0 min 0 lux 0,00 min 14,0 C 16,0 C
26.06.2011 23:45 15,8 C 88 % 1021 hPa 0,0 l/m 0,0 km/h (0 Bft) N-NO 30 0 min 0 lux 0,00 min 13,8 C 15,8 C
_ Min-Zeit 05:45 16:30 19:00 - 09:15 - - - - - 05:45 01:45
Minimum _ 13,3 C 56 % 1021 hPa - 0,0 km/h (0 Bft) - - - - - 12,4 C 8,2 C
_ Max-Zeit 16:45 06:15 04:00 00:00 01:45 - - 10:30 12:00 00:00 12:15 16:45
Maximum _ 26,4 C 95 % 1023 hPa 0,0 l/m 23,2 km/h
W (4 Bft)
- - 15 min 115 klux 0,00 min 17,9 C 26,0 C
Durchschnitt _ 19,3 C 79 % 1022 hPa #0,0 l/m 9,6 km/h (2 Bft) W-SW - #7:15 h 35,4 klux #0 min. 15,2 C 17,7 C